Time;durP1;ratioP1;P1;durP2;ratioP2;P2;SDS_P1;SDS_P2;PMS_P1;PMS_P2;Temp;Humidity;BMP_temperature;BMP_pressure;BME280_temperature;BME280_humidity;BME280_pressure;Samples;Min_cycle;Max_cycle;Signal;HPM_P1;HPM_P2
2022/10/26 00:01:14;;;;;;;7.97;4.87;;;;;;;6.85;100.00;101047.13;4994619;28;20383;-80
2022/10/26 00:03:42;;;;;;;10.17;5.17;;;;;;;6.78;100.00;101049.72;5018669;28;20143;-82
2022/10/26 00:06:15;;;;;;;7.23;4.63;;;;;;;6.76;100.00;101063.75;5014513;28;20045;-82
2022/10/26 00:08:42;;;;;;;7.63;5.23;;;;;;;6.75;100.00;101052.38;5033398;28;20135;-82
2022/10/26 00:11:09;;;;;;;8.03;5.80;;;;;;;6.74;100.00;101061.13;5017864;28;20157;-82
2022/10/26 00:13:38;;;;;;;12.73;6.77;;;;;;;6.75;100.00;101054.13;5028963;28;20037;-82
2022/10/26 00:16:17;;;;;;;10.07;6.13;;;;;;;6.72;100.00;101065.47;5011182;28;20037;-82
2022/10/26 00:18:44;;;;;;;9.17;5.43;;;;;;;6.68;100.00;101062.84;5014634;28;20075;-82
2022/10/26 00:21:11;;;;;;;7.30;5.00;;;;;;;6.66;100.00;101067.22;5007660;28;20122;-81
2022/10/26 00:23:38;;;;;;;8.87;6.10;;;;;;;6.66;100.00;101062.88;5015012;28;20044;-82
2022/10/26 00:26:05;;;;;;;13.23;7.23;;;;;;;6.65;100.00;101076.00;5022795;28;20556;-82
2022/10/26 00:28:32;;;;;;;10.17;6.83;;;;;;;6.63;100.00;101062.84;5008402;28;20075;-82
2022/10/26 00:31:04;;;;;;;14.33;7.47;;;;;;;6.67;100.00;101063.72;5028434;28;20513;-82
2022/10/26 00:33:33;;;;;;;13.48;7.13;;;;;;;6.62;100.00;101073.34;5024591;28;20037;-83
2022/10/26 00:36:00;;;;;;;11.13;6.80;;;;;;;6.59;100.00;101074.22;5032936;28;20044;-82
2022/10/26 00:38:27;;;;;;;11.07;7.20;;;;;;;6.57;100.00;101078.59;5030927;28;20049;-84
2022/10/26 00:40:54;;;;;;;9.57;6.40;;;;;;;6.55;100.00;101075.06;4998049;28;20045;-83
2022/10/26 00:43:26;;;;;;;9.47;6.10;;;;;;;6.55;100.00;101074.19;5010202;28;20048;-83
2022/10/26 00:45:54;;;;;;;9.57;6.03;;;;;;;6.57;100.00;101075.97;5031811;28;20410;-83
2022/10/26 00:48:27;;;;;;;12.90;7.40;;;;;;;6.54;100.00;101075.94;5001418;28;20098;-82
2022/10/26 00:50:55;;;;;;;10.33;6.27;;;;;;;6.54;100.00;101082.94;5031663;28;20139;-82
2022/10/26 00:53:22;;;;;;;11.17;7.43;;;;;;;6.52;100.00;101074.19;5018622;28;20291;-82
2022/10/26 00:55:50;;;;;;;11.17;7.10;;;;;;;6.49;100.00;101082.94;5040961;28;20508;-82
2022/10/26 00:58:17;;;;;;;11.47;6.37;;;;;;;6.48;100.00;101084.69;5023220;28;20040;-82
2022/10/26 01:00:44;;;;;;;10.53;5.97;;;;;;;6.46;100.00;101090.78;5026761;28;20037;-82
2022/10/26 01:03:11;;;;;;;9.43;5.87;;;;;;;6.44;100.00;101088.16;5012133;28;20549;-82
2022/10/26 01:05:41;;;;;;;10.33;5.40;;;;;;;6.45;100.00;101087.28;5003634;28;20144;-81
2022/10/26 01:08:08;;;;;;;9.90;5.50;;;;;;;6.41;100.00;101079.41;4999764;28;20041;-82
2022/10/26 01:10:37;;;;;;;10.57;6.03;;;;;;;6.40;100.00;101091.66;5029345;28;20037;-83
2022/10/26 01:13:04;;;;;;;7.60;5.17;;;;;;;6.36;100.00;101084.63;5031688;28;20036;-82
2022/10/26 01:15:41;;;;;;;7.10;4.30;;;;;;;6.37;100.00;101078.50;5020721;28;20042;-82
2022/10/26 01:18:12;;;;;;;7.40;4.77;;;;;;;6.39;100.00;101081.13;5011517;28;20146;-82
2022/10/26 01:20:55;;;;;;;7.83;5.30;;;;;;;6.35;100.00;101074.13;5032426;28;20049;-81
2022/10/26 01:23:33;;;;;;;9.23;5.20;;;;;;;6.36;100.00;101074.13;5015332;28;20507;-82
2022/10/26 01:26:11;;;;;;;9.17;6.67;;;;;;;6.32;100.00;101071.53;5017881;28;20452;-81
2022/10/26 01:28:56;;;;;;;9.30;5.43;;;;;;;6.27;100.00;101075.84;5039629;28;20052;-81
2022/10/26 01:31:28;;;;;;;8.47;5.73;;;;;;;6.24;100.00;101068.88;5014551;28;20040;-82
2022/10/26 01:34:05;;;;;;;8.30;5.10;;;;;;;6.28;100.00;101075.00;5028916;28;20041;-81
2022/10/26 01:36:54;;;;;;;11.10;5.83;;;;;;;6.25;100.00;101069.75;5016054;28;20037;-82
2022/10/26 01:39:28;;;;;;;11.00;6.57;;;;;;;6.20;100.00;101069.72;5027073;28;20412;-83
2022/10/26 01:41:58;;;;;;;11.60;6.47;;;;;;;6.26;100.00;101074.13;5001979;28;20068;-83
2022/10/26 01:44:32;;;;;;;11.40;6.40;;;;;;;6.22;100.00;101065.34;5018039;28;20049;-83
2022/10/26 01:47:00;;;;;;;11.55;7.55;;;;;;;6.21;100.00;101074.94;5030904;28;20103;-81
2022/10/26 01:49:30;;;;;;;12.47;7.10;;;;;;;6.19;100.00;101073.22;5024043;23;20088;-77
2022/10/26 01:51:57;;;;;;;12.33;7.93;;;;;;;6.16;100.00;101071.47;5009933;28;20045;-79
2022/10/26 01:54:23;;;;;;;13.40;8.37;;;;;;;6.12;100.00;101072.28;4999998;28;20076;-80
2022/10/26 01:56:52;;;;;;;16.70;9.67;;;;;;;6.08;100.00;101073.16;4997860;28;20461;-79
2022/10/26 01:59:25;;;;;;;19.73;11.17;;;;;;;6.08;100.00;101073.16;5013449;28;20034;-78
2022/10/26 02:02:25;;;;;;;17.87;10.57;;;;;;;6.08;100.00;101072.28;5013226;28;20092;-78
2022/10/26 02:05:17;;;;;;;22.43;11.90;;;;;;;6.05;100.00;101065.25;4996486;28;20441;-80
2022/10/26 02:08:00;;;;;;;19.50;10.07;;;;;;;6.07;100.00;101065.31;5005319;28;20050;-79
2022/10/26 02:11:02;;;;;;;18.07;9.27;;;;;;;6.06;100.00;101060.94;4994827;28;20045;-77
2022/10/26 02:13:53;;;;;;;18.53;8.87;;;;;;;6.06;100.00;101059.19;4995101;28;20034;-77
2022/10/26 02:16:31;;;;;;;15.23;7.33;;;;;;;6.05;100.00;101057.41;4991968;28;20065;-77
2022/10/26 02:19:04;;;;;;;14.40;8.37;;;;;;;6.06;100.00;101053.06;5013124;28;20042;-78
2022/10/26 02:21:36;;;;;;;13.73;7.87;;;;;;;6.03;100.00;101043.41;4994736;28;20479;-78
2022/10/26 02:24:04;;;;;;;16.60;8.97;;;;;;;6.06;100.00;101053.06;4960804;28;20046;-78
2022/10/26 02:26:31;;;;;;;12.37;7.33;;;;;;;6.03;100.00;101048.66;4997774;28;20030;-78
2022/10/26 02:29:02;;;;;;;14.63;7.57;;;;;;;6.06;100.00;101045.19;5011092;28;20038;-77
2022/10/26 02:31:30;;;;;;;15.33;8.03;;;;;;;6.06;100.00;101047.81;5007199;28;20049;-78
2022/10/26 02:33:59;;;;;;;12.20;7.10;;;;;;;6.03;100.00;101048.66;5011692;28;20045;-78
2022/10/26 02:36:28;;;;;;;11.73;7.33;;;;;;;5.99;100.00;101046.91;5009904;28;20041;-78
2022/10/26 02:38:56;;;;;;;13.57;6.83;;;;;;;5.91;100.00;101043.38;4989637;28;20041;-78
2022/10/26 02:41:24;;;;;;;11.07;6.47;;;;;;;5.92;100.00;101045.13;4978922;28;20049;-80
2022/10/26 02:44:12;;;;;;;13.37;6.90;;;;;;;5.88;100.00;101052.03;5000846;28;20537;-79
2022/10/26 02:46:39;;;;;;;8.83;5.97;;;;;;;5.83;100.00;101055.53;5001646;28;20498;-79
2022/10/26 02:49:06;;;;;;;9.27;5.83;;;;;;;5.80;100.00;101051.16;4993500;28;20478;-79
2022/10/26 02:51:38;;;;;;;10.27;6.23;;;;;;;5.81;100.00;101052.03;5020446;28;20046;-79
2022/10/26 02:54:25;;;;;;;10.40;6.00;;;;;;;5.83;100.00;101056.41;5000627;28;20125;-78
2022/10/26 02:56:59;;;;;;;10.53;6.93;;;;;;;5.80;100.00;101059.03;4972501;28;20061;-78
2022/10/26 02:59:28;;;;;;;8.85;5.30;;;;;;;5.75;100.00;101055.47;5014036;28;20076;-78
2022/10/26 03:01:54;;;;;;;11.03;6.07;;;;;;;5.73;100.00;101057.22;4989066;28;20513;-79
2022/10/26 03:04:27;;;;;;;10.40;5.03;;;;;;;5.73;100.00;101049.38;4999100;28;20058;-76
2022/10/26 03:06:54;;;;;;;9.60;5.20;;;;;;;5.70;100.00;101054.56;5011188;28;20128;-79
2022/10/26 03:09:21;;;;;;;8.27;4.63;;;;;;;5.64;100.00;101062.41;4999699;28;20038;-78
2022/10/26 03:11:51;;;;;;;13.27;4.73;;;;;;;5.64;100.00;101059.81;4963165;28;20034;-78
2022/10/26 03:14:18;;;;;;;7.43;4.40;;;;;;;5.62;100.00;101057.16;4995862;28;20068;-77
2022/10/26 03:16:44;;;;;;;7.87;4.00;;;;;;;5.58;100.00;101047.53;5012628;28;20034;-77
2022/10/26 03:19:11;;;;;;;8.80;4.63;;;;;;;5.51;100.00;101055.34;5012878;28;20062;-79
2022/10/26 03:21:38;;;;;;;8.37;3.93;;;;;;;5.49;100.00;101062.31;4990802;28;20549;-77
2022/10/26 03:24:04;;;;;;;8.33;4.30;;;;;;;5.49;100.00;101049.22;4975060;28;20039;-77
2022/10/26 03:26:31;;;;;;;10.23;5.03;;;;;;;5.44;100.00;101058.78;4977952;28;20519;-79
2022/10/26 03:28:58;;;;;;;9.90;4.87;;;;;;;5.47;100.00;101051.84;5000778;28;20061;-79
2022/10/26 03:31:24;;;;;;;8.97;5.40;;;;;;;5.43;100.00;101055.28;4984913;28;20446;-77
2022/10/26 03:33:51;;;;;;;9.23;5.30;;;;;;;5.41;100.00;101062.25;4991047;28;20045;-78
2022/10/26 03:36:18;;;;;;;10.60;5.27;;;;;;;5.52;100.00;101049.22;4994183;28;20087;-78
2022/10/26 03:38:44;;;;;;;8.67;5.53;;;;;;;5.54;100.00;101050.09;4998448;28;20613;-77
2022/10/26 03:41:11;;;;;;;10.10;5.77;;;;;;;5.40;100.00;101050.03;4994376;28;20042;-77
2022/10/26 03:43:37;;;;;;;11.27;5.93;;;;;;;5.31;100.00;101050.84;4989664;28;20517;-77
2022/10/26 03:46:04;;;;;;;11.93;6.30;;;;;;;5.26;100.00;101072.63;4996236;28;20037;-77
2022/10/26 03:48:30;;;;;;;9.20;5.50;;;;;;;5.28;100.00;101066.53;4962386;28;20577;-75
2022/10/26 03:50:58;;;;;;;11.23;5.47;;;;;;;5.30;100.00;101062.19;4979642;28;20076;-77
2022/10/26 03:53:25;;;;;;;9.30;5.50;;;;;;;5.23;100.00;101065.63;4994003;28;20038;-77
2022/10/26 03:55:52;;;;;;;10.77;5.07;;;;;;;5.25;100.00;101065.63;5003506;28;20119;-78
2022/10/26 03:58:19;;;;;;;11.30;5.80;;;;;;;5.31;100.00;101063.06;5004488;28;20152;-78
2022/10/26 04:00:46;;;;;;;9.43;5.50;;;;;;;5.23;100.00;101063.00;4980123;28;20049;-76
2022/10/26 04:03:13;;;;;;;11.87;5.77;;;;;;;5.17;100.00;101062.94;4973896;28;20254;-78
2022/10/26 04:05:39;;;;;;;10.27;5.87;;;;;;;5.23;100.00;101060.38;4981006;28;20498;-76
2022/10/26 04:08:07;;;;;;;9.13;5.10;;;;;;;5.15;100.00;101066.44;5007570;28;20115;-77
2022/10/26 04:10:34;;;;;;;11.10;6.10;;;;;;;5.15;100.00;101071.66;4983756;28;20038;-77
2022/10/26 04:13:00;;;;;;;10.03;5.80;;;;;;;5.08;100.00;101068.13;4993127;28;20045;-77
2022/10/26 04:15:27;;;;;;;11.07;6.77;;;;;;;5.10;100.00;101066.38;4979267;28;20065;-78
2022/10/26 04:17:59;;;;;;;11.03;6.40;;;;;;;5.08;100.00;101074.22;4988786;28;20049;-78
2022/10/26 04:20:26;;;;;;;11.23;7.20;;;;;;;5.14;100.00;101069.91;4978116;28;20049;-78
2022/10/26 04:23:01;;;;;;;13.13;7.00;;;;;;;5.06;100.00;101064.63;4976140;28;20136;-79
2022/10/26 04:25:28;;;;;;;14.37;6.70;;;;;;;5.07;100.00;101072.47;4989302;28;20053;-79
2022/10/26 04:27:59;;;;;;;12.33;6.57;;;;;;;5.05;100.00;101071.59;4980104;28;20415;-80
2022/10/26 04:30:26;;;;;;;12.50;6.57;;;;;;;5.06;100.00;101069.84;4972035;28;20046;-78
2022/10/26 04:32:52;;;;;;;10.87;6.77;;;;;;;5.00;100.00;101070.66;4994935;28;21706;-77
2022/10/26 04:35:19;;;;;;;13.23;7.33;;;;;;;5.01;100.00;101069.81;4980501;28;20499;-79
2022/10/26 04:37:46;;;;;;;11.30;6.23;;;;;;;5.01;100.00;101066.31;5013899;28;20499;-79
2022/10/26 04:40:12;;;;;;;11.87;5.90;;;;;;;4.97;100.00;101078.50;4980487;28;20084;-77
2022/10/26 04:42:43;;;;;;;11.80;6.70;;;;;;;4.91;100.00;101078.44;4965851;28;20070;-78
2022/10/26 04:45:10;;;;;;;10.10;6.00;;;;;;;4.89;100.00;101076.69;4983403;28;20046;-79
2022/10/26 04:47:37;;;;;;;15.27;7.23;;;;;;;4.98;100.00;101069.78;5006984;28;20487;-78
2022/10/26 04:50:04;;;;;;;9.53;5.97;;;;;;;4.92;100.00;101079.31;4981119;28;20073;-79
2022/10/26 04:52:31;;;;;;;12.37;7.17;;;;;;;4.95;100.00;101079.34;4995822;28;20089;-79
2022/10/26 04:54:58;;;;;;;10.63;5.87;;;;;;;4.96;100.00;101076.75;5014100;28;20034;-79
2022/10/26 04:57:24;;;;;;;10.50;6.30;;;;;;;4.95;100.00;101080.22;5004106;28;20051;-78
2022/10/26 04:59:51;;;;;;;10.73;5.63;;;;;;;4.87;100.00;101079.25;4990645;28;20042;-78
2022/10/26 05:02:19;;;;;;;10.73;6.20;;;;;;;4.91;100.00;101083.69;4977704;28;20046;-79
2022/10/26 05:04:47;;;;;;;11.50;5.87;;;;;;;4.91;100.00;101064.47;5002203;28;20042;-79
2022/10/26 05:07:13;;;;;;;11.50;5.97;;;;;;;4.90;100.00;101068.84;5004934;28;20045;-78
2022/10/26 05:09:40;;;;;;;11.70;6.53;;;;;;;4.85;100.00;101075.75;4990594;28;20088;-79
2022/10/26 05:12:07;;;;;;;11.33;6.47;;;;;;;4.87;100.00;101066.16;5018639;28;20038;-78
2022/10/26 05:14:33;;;;;;;11.00;5.77;;;;;;;4.82;100.00;101069.63;5007086;28;20053;-79
2022/10/26 05:17:00;;;;;;;11.53;6.00;;;;;;;4.83;100.00;101071.38;5008944;28;20046;-79
2022/10/26 05:19:27;;;;;;;11.20;6.00;;;;;;;4.75;100.00;101079.16;4998627;28;20042;-79
2022/10/26 05:21:53;;;;;;;11.93;6.63;;;;;;;4.82;100.00;101078.34;4997234;28;20038;-79
2022/10/26 05:24:20;;;;;;;11.57;5.83;;;;;;;4.82;100.00;101080.97;4995036;28;20060;-79
2022/10/26 05:26:47;;;;;;;12.23;6.13;;;;;;;4.78;100.00;101080.06;4983804;28;20060;-79
2022/10/26 05:29:13;;;;;;;16.57;6.67;;;;;;;4.80;100.00;101080.09;4980370;28;20046;-79
2022/10/26 05:31:41;;;;;;;11.27;6.50;;;;;;;4.73;100.00;101080.88;4977630;28;20045;-79
2022/10/26 05:34:08;;;;;;;13.00;6.57;;;;;;;4.76;100.00;101083.53;4979177;28;20511;-78
2022/10/26 05:36:34;;;;;;;10.73;6.27;;;;;;;4.75;100.00;101085.28;4963806;28;20046;-79
2022/10/26 05:39:01;;;;;;;12.93;6.20;;;;;;;4.68;100.00;101083.44;4949788;28;20049;-78
2022/10/26 05:41:28;;;;;;;12.30;6.27;;;;;;;4.71;100.00;101082.63;4976499;28;20195;-77
2022/10/26 05:43:54;;;;;;;11.47;6.47;;;;;;;4.69;100.00;101089.56;4982339;28;20046;-79
2022/10/26 05:46:21;;;;;;;13.90;5.93;;;;;;;4.68;100.00;101087.81;4983464;28;20042;-79
2022/10/26 05:48:48;;;;;;;13.93;7.00;;;;;;;4.66;100.00;101095.66;4962459;28;20042;-79
2022/10/26 05:51:15;;;;;;;11.80;6.40;;;;;;;4.64;100.00;101092.13;4962072;28;20050;-78
2022/10/26 05:53:41;;;;;;;12.43;7.17;;;;;;;4.70;100.00;101100.03;4995496;28;20037;-78
2022/10/26 05:56:18;;;;;;;12.53;6.90;;;;;;;4.79;100.00;101094.94;4956243;28;20053;-77
2022/10/26 05:58:45;;;;;;;13.27;6.70;;;;;;;4.68;100.00;101096.53;4991571;28;20065;-77
2022/10/26 06:01:26;;;;;;;13.67;5.93;;;;;;;4.72;100.00;101097.47;4984826;28;20042;-77
2022/10/26 06:04:08;;;;;;;12.00;6.07;;;;;;;4.77;100.00;101100.97;4997537;28;20038;-77
2022/10/26 06:06:41;;;;;;;13.57;7.13;;;;;;;4.68;100.00;101093.91;5007165;28;20049;-79
2022/10/26 06:09:10;;;;;;;9.57;5.43;;;;;;;4.68;100.00;101108.75;4980712;28;20088;-78
2022/10/26 06:11:37;;;;;;;11.20;6.20;;;;;;;4.64;100.00;101105.22;4996749;28;20050;-78
2022/10/26 06:14:04;;;;;;;10.20;6.13;;;;;;;4.67;100.00;101112.22;5014561;28;20029;-79
2022/10/26 06:16:54;;;;;;;10.03;5.00;;;;;;;4.64;100.00;101113.06;5012452;28;20087;-78
2022/10/26 06:19:43;;;;;;;9.80;5.17;;;;;;;4.65;100.00;101114.84;5003271;28;20132;-78
2022/10/26 06:22:20;;;;;;;9.43;6.03;;;;;;;4.66;100.00;101116.59;4981020;28;20038;-78
2022/10/26 06:24:55;;;;;;;12.17;6.23;;;;;;;4.71;100.00;101120.13;5009940;28;20046;-78
2022/10/26 06:27:52;;;;;;;13.13;6.80;;;;;;;4.73;100.00;101110.56;4998374;28;20033;-78
2022/10/26 06:30:22;;;;;;;9.93;5.80;;;;;;;4.75;100.00;101115.81;4958868;28;20105;-77
2022/10/26 06:32:50;;;;;;;16.63;7.33;;;;;;;4.79;100.00;101120.19;4998440;28;20060;-78
2022/10/26 06:35:44;;;;;;;11.77;6.13;;;;;;;4.77;100.00;101121.91;4970340;28;20073;-78
2022/10/26 06:38:14;;;;;;;10.93;5.90;;;;;;;4.79;100.00;101122.81;4996724;28;20069;-79
2022/10/26 06:40:42;;;;;;;13.13;5.70;;;;;;;4.74;100.00;101130.63;4998994;28;20046;-78
2022/10/26 06:43:24;;;;;;;9.57;6.20;;;;;;;4.79;100.00;101121.09;4994413;28;20037;-78
2022/10/26 06:45:59;;;;;;;11.93;5.63;;;;;;;4.80;100.00;101128.09;4980280;28;20088;-78
2022/10/26 06:48:28;;;;;;;10.40;6.40;;;;;;;4.96;100.00;101129.13;4978144;28;20046;-78
2022/10/26 06:50:55;;;;;;;9.63;6.03;;;;;;;4.98;100.00;101137.00;5012480;28;20044;-78
2022/10/26 06:53:40;;;;;;;13.27;7.03;;;;;;;5.03;100.00;101135.28;4976664;28;20030;-78
2022/10/26 06:56:10;;;;;;;11.83;6.27;;;;;;;5.08;100.00;101130.97;5004136;28;20038;-78
2022/10/26 06:58:37;;;;;;;12.27;6.90;;;;;;;5.07;100.00;101142.31;4986067;28;20037;-78
2022/10/26 07:01:04;;;;;;;10.17;6.07;;;;;;;5.18;100.00;101137.16;5016761;28;20045;-78
2022/10/26 07:03:31;;;;;;;12.77;6.37;;;;;;;5.18;100.00;101131.94;5021931;28;20088;-78
2022/10/26 07:05:57;;;;;;;9.53;5.97;;;;;;;5.33;100.00;101140.81;4966271;28;20573;-78
2022/10/26 07:08:24;;;;;;;10.20;6.47;;;;;;;5.43;100.00;101133.00;4974187;28;20643;-78
2022/10/26 07:10:51;;;;;;;14.43;6.87;;;;;;;5.49;100.00;101140.94;4983992;28;20041;-78
2022/10/26 07:13:18;;;;;;;9.70;5.97;;;;;;;5.53;100.00;101147.94;4995786;28;20034;-78
2022/10/26 07:15:45;;;;;;;12.47;7.17;;;;;;;5.61;100.00;101147.13;4998583;28;20053;-77
2022/10/26 07:18:12;;;;;;;11.67;7.17;;;;;;;5.73;100.00;101143.75;4983518;28;20462;-77
2022/10/26 07:20:40;;;;;;;10.83;6.23;;;;;;;5.76;100.00;101153.38;4996569;28;20042;-78
2022/10/26 07:23:11;;;;;;;12.97;7.60;;;;;;;5.81;100.00;101142.06;4964302;28;20039;-78
2022/10/26 07:25:39;;;;;;;10.83;6.63;;;;;;;5.89;100.00;101149.97;4988280;28;20042;-78
2022/10/26 07:28:08;;;;;;;10.00;6.30;;;;;;;5.96;100.00;101150.91;4975268;28;20046;-78
2022/10/26 07:30:37;;;;;;;10.90;6.70;;;;;;;6.01;100.00;101155.31;4989527;28;20052;-78
2022/10/26 07:33:06;;;;;;;10.07;5.73;;;;;;;6.07;100.00;101151.84;5014720;28;20046;-78
2022/10/26 07:35:33;;;;;;;9.83;6.50;;;;;;;6.12;100.00;101151.00;4983835;28;20041;-78
2022/10/26 07:38:00;;;;;;;10.03;6.50;;;;;;;6.32;100.00;101155.50;4989591;28;20034;-78
2022/10/26 07:40:27;;;;;;;12.27;6.90;;;;;;;6.43;100.00;101152.03;4997392;28;20092;-78
2022/10/26 07:42:58;;;;;;;12.67;7.30;;;;;;;6.42;100.00;101149.41;5014461;28;20042;-78
2022/10/26 07:45:26;;;;;;;11.00;6.87;;;;;;;6.45;100.00;101152.91;4983843;28;20057;-78
2022/10/26 07:47:53;;;;;;;12.40;6.97;;;;;;;6.53;100.00;101155.56;4997961;28;20077;-78
2022/10/26 07:50:20;;;;;;;11.57;6.87;;;;;;;6.59;100.00;101157.34;4998328;28;20093;-77
2022/10/26 07:52:47;;;;;;;10.93;7.13;;;;;;;6.67;100.00;101160.88;5001628;28;20042;-78
2022/10/26 07:55:14;;;;;;;12.00;7.87;;;;;;;6.72;100.00;101157.38;5072732;23;20414;-82
2022/10/26 07:57:41;;;;;;;14.80;8.60;;;;;;;6.76;100.00;101153.91;4981198;28;20146;-80
2022/10/26 08:00:09;;;;;;;15.97;8.43;;;;;;;6.82;100.00;101149.56;5000983;28;20045;-83
2022/10/26 08:02:35;;;;;;;11.60;6.63;;;;;;;6.87;100.00;101145.16;5018706;28;20494;-81
2022/10/26 08:05:03;;;;;;;15.03;8.83;;;;;;;6.96;100.00;101153.94;5020201;28;20033;-81
2022/10/26 08:07:30;;;;;;;13.83;7.37;;;;;;;7.03;100.00;101149.59;5025349;28;20753;-82
2022/10/26 08:09:57;;;;;;;11.53;7.30;;;;;;;7.09;100.00;101153.97;5014549;28;20042;-81
2022/10/26 08:12:23;;;;;;;10.23;6.47;;;;;;;7.17;100.00;101155.75;4998927;28;20041;-81
2022/10/26 08:14:50;;;;;;;12.50;6.53;;;;;;;7.23;100.00;101152.22;5014114;28;20041;-81
2022/10/26 08:17:16;;;;;;;10.53;6.80;;;;;;;7.34;100.00;101154.00;5003722;28;20090;-83
2022/10/26 08:19:46;;;;;;;11.73;6.43;;;;;;;7.38;100.00;101147.00;5024074;28;20047;-83
2022/10/26 08:22:13;;;;;;;10.57;6.40;;;;;;;7.41;100.00;101143.50;4994700;28;20065;-83
2022/10/26 08:24:45;;;;;;;12.33;7.23;;;;;;;7.49;100.00;101142.63;5008292;28;20465;-81
2022/10/26 08:27:13;;;;;;;11.87;7.27;;;;;;;7.55;100.00;101149.63;5007918;28;20046;-82
2022/10/26 08:29:41;;;;;;;11.33;7.00;;;;;;;7.60;100.00;101154.00;5009618;28;20401;-81
2022/10/26 08:32:07;;;;;;;14.20;8.10;;;;;;;7.65;100.00;101148.75;5009319;28;20490;-82
2022/10/26 08:34:34;;;;;;;14.93;8.53;;;;;;;7.77;100.00;101147.88;5006775;28;20034;-83
2022/10/26 08:37:00;;;;;;;14.10;7.93;;;;;;;7.80;100.00;101158.38;5027178;28;20049;-81
2022/10/26 08:39:29;;;;;;;12.90;8.23;;;;;;;7.87;100.00;101147.84;5018703;28;20041;-81
2022/10/26 08:42:06;;;;;;;16.30;7.47;;;;;;;7.94;100.00;101150.47;5002633;28;20054;-82
2022/10/26 08:44:46;;;;;;;12.83;7.13;;;;;;;8.02;100.00;101149.56;4996336;28;20473;-81
2022/10/26 08:47:21;;;;;;;13.00;7.90;;;;;;;8.14;100.00;101148.66;5015362;28;20564;-81
2022/10/26 08:49:50;;;;;;;13.13;7.57;;;;;;;8.24;100.00;101149.50;4996240;28;20572;-81
2022/10/26 08:52:23;;;;;;;13.77;8.03;;;;;;;8.38;100.00;101148.63;5029301;28;20050;-82
2022/10/26 08:54:53;;;;;;;14.90;7.45;;;;;;;8.48;100.00;101145.94;5005199;28;20037;-82
2022/10/26 08:57:40;;;;;;;16.17;8.30;;;;;;;8.66;100.00;101153.75;5012131;28;20052;-82
2022/10/26 09:00:12;;;;;;;13.98;8.45;;;;;;;8.83;100.00;101143.13;5020888;28;20041;-82
2022/10/26 09:02:39;;;;;;;16.05;8.90;;;;;;;8.97;100.00;101150.06;4990962;28;20041;-82
2022/10/26 09:05:15;;;;;;;14.70;8.90;;;;;;;9.14;100.00;101147.34;5013669;28;20045;-82
2022/10/26 09:07:52;;;;;;;17.77;10.32;;;;;;;9.32;100.00;101151.59;4982837;28;20038;-82
2022/10/26 09:10:55;;;;;;;16.95;10.52;;;;;;;9.51;100.00;101147.06;4995361;28;20056;-82
2022/10/26 09:13:59;;;;;;;19.40;10.35;;;;;;;9.78;100.00;101149.47;5001908;28;20673;-82
2022/10/26 09:17:08;;;;;;;16.00;9.73;;;;;;;10.11;100.00;101144.75;5019663;28;20053;-81
2022/10/26 09:19:55;;;;;;;16.30;9.75;;;;;;;10.45;100.00;101142.63;5031655;28;21209;-81
2022/10/26 09:22:27;;;;;;;15.25;9.38;;;;;;;10.72;100.00;101144.03;5015764;28;20546;-81
2022/10/26 09:25:02;;;;;;;16.23;9.73;;;;;;;11.00;100.00;101148.03;5006108;28;20084;-81
2022/10/26 09:27:40;;;;;;;13.02;8.27;;;;;;;11.28;100.00;101144.97;4998376;28;20038;-81
2022/10/26 09:30:15;;;;;;;15.32;8.38;;;;;;;11.70;100.00;101139.88;4991064;28;20061;-81
2022/10/26 09:32:45;;;;;;;14.93;9.15;;;;;;;11.99;100.00;101137.59;4995400;28;20041;-80
2022/10/26 09:35:21;;;;;;;13.52;7.95;;;;;;;12.22;100.00;101141.59;5009998;28;20041;-83
2022/10/26 09:37:55;;;;;;;12.88;7.85;;;;;;;12.49;100.00;101146.34;4980057;28;20096;-84
2022/10/26 09:40:33;;;;;;;10.13;7.05;;;;;;;12.56;100.00;101150.59;4976952;28;20050;-84
2022/10/26 09:43:08;;;;;;;13.20;7.70;;;;;;;12.69;100.00;101148.56;4995188;28;20034;-84
2022/10/26 09:45:44;;;;;;;10.52;7.07;;;;;;;12.90;100.00;101147.22;4977939;28;20046;-84
2022/10/26 09:48:30;;;;;;;10.13;6.28;;;;;;;13.16;100.00;101149.28;4996841;28;20518;-84
2022/10/26 09:50:59;;;;;;;10.70;6.13;;;;;;;13.37;100.00;101147.94;4994996;28;20473;-83
2022/10/26 09:53:31;;;;;;;9.95;6.03;;;;;;;13.50;100.00;101152.91;4998185;28;20041;-83
2022/10/26 09:56:03;;;;;;;9.18;5.30;;;;;;;13.75;100.00;101154.94;4996469;28;20050;-84
2022/10/26 09:58:31;;;;;;;10.63;5.18;;;;;;;13.96;100.00;101151.75;5010574;28;20034;-84
2022/10/26 10:00:58;;;;;;;7.63;4.75;;;;;;;14.07;100.00;101152.31;4997356;28;20048;-85
2022/10/26 10:03:27;;;;;;;6.95;4.97;;;;;;;14.24;100.00;101151.00;4996854;28;20042;-85
2022/10/26 10:06:14;;;;;;;6.95;4.63;;;;;;;14.32;100.00;101149.88;4982164;28;20502;-84
2022/10/26 10:08:41;;;;;;;7.78;4.25;;;;;;;14.43;100.00;101151.34;4999511;28;20068;-84
2022/10/26 10:11:10;;;;;;;6.35;4.35;;;;;;;14.61;100.00;101148.19;5013379;28;20076;-85
2022/10/26 10:13:39;;;;;;;6.43;3.80;;;;;;;14.82;100.00;101154.66;4981704;28;20073;-84
2022/10/26 10:16:10;;;;;;;9.23;3.92;;;;;;;14.89;100.00;101153.56;5008686;28;20065;-84
2022/10/26 10:18:39;;;;;;;6.10;3.70;;;;;;;14.97;100.00;101145.34;5032607;28;20045;-84
2022/10/26 10:21:06;;;;;;;5.68;3.33;;;;;;;15.02;100.00;101148.72;5009626;28;20046;-84
2022/10/26 10:23:47;;;;;;;7.13;3.47;;;;;;;15.06;100.00;101145.94;4999448;28;20529;-84
2022/10/26 10:26:14;;;;;;;6.88;3.03;;;;;;;15.25;100.00;101135.56;5001633;28;20096;-84
2022/10/26 10:28:41;;;;;;;5.60;3.40;;;;;;;15.32;100.00;101144.22;4996437;28;20065;-84
2022/10/26 10:31:22;;;;;;;5.10;3.35;;;;;;;15.39;100.00;101143.13;5008329;28;20652;-84
2022/10/26 10:33:49;;;;;;;6.15;3.03;;;;;;;15.45;100.00;101145.56;5015719;28;20045;-84
2022/10/26 10:36:18;;;;;;;3.97;2.60;;;;;;;15.54;100.00;101145.25;5013327;28;20054;-83
2022/10/26 10:38:46;;;;;;;4.88;2.75;;;;;;;15.67;100.00;101143.09;4996822;28;20045;-84
2022/10/26 10:41:20;;;;;;;5.30;2.72;;;;;;;15.79;100.00;101142.66;4996580;28;20052;-85
2022/10/26 10:43:50;;;;;;;8.63;3.08;;;;;;;15.89;100.00;101141.44;4979848;28;20490;-87
2022/10/26 10:46:19;;;;;;;4.88;2.58;;;;;;;15.87;100.00;101140.59;4979843;28;20038;-84
2022/10/26 10:48:50;;;;;;;6.78;2.97;;;;;;;16.15;100.00;101140.53;4980441;28;20071;-85
2022/10/26 10:51:22;;;;;;;4.45;2.80;;;;;;;16.24;100.00;101139.31;4980712;28;20470;-85
2022/10/26 10:53:58;;;;;;;7.90;3.75;;;;;;;16.30;100.00;101134.59;5008025;28;20044;-85
2022/10/26 10:56:52;;;;;;;6.22;2.53;;;;;;;16.50;100.00;101144.56;5002137;28;20103;-86
2022/10/26 10:59:38;;;;;;;;;;;;;;;16.43;100.00;101150.19;5001280;28;20418;-83
2022/10/26 11:02:38;;;;;;;5.28;2.67;;;;;;;16.56;100.00;101146.09;4997836;28;19974;-83
2022/10/26 11:05:32;;;;;;;3.22;2.45;;;;;;;16.71;100.00;101145.56;5007158;28;20037;-84
2022/10/26 11:08:09;;;;;;;5.20;3.08;;;;;;;16.69;99.20;101147.44;4994813;28;20045;-84
2022/10/26 11:10:39;;;;;;;5.47;3.42;;;;;;;16.81;100.00;101140.75;4999663;28;20051;-84
2022/10/26 11:13:31;;;;;;;5.97;2.60;;;;;;;16.84;100.00;101149.53;4997145;28;20561;-84
2022/10/26 11:16:02;;;;;;;5.22;2.60;;;;;;;16.82;98.78;101146.06;5010026;28;20495;-84
2022/10/26 11:18:39;;;;;;;4.63;2.78;;;;;;;16.96;95.23;101147.28;5003503;28;20053;-85
2022/10/26 11:21:14;;;;;;;4.13;2.70;;;;;;;16.92;98.28;101145.69;4996405;28;20044;-83
2022/10/26 11:24:28;;;;;;;4.72;2.83;;;;;;;17.04;97.97;101153.19;5029882;28;20042;-83
2022/10/26 11:26:59;;;;;;;7.32;3.38;;;;;;;17.05;100.00;101146.94;4995784;28;20466;-84
2022/10/26 11:29:42;;;;;;;5.30;3.00;;;;;;;17.10;98.63;101143.16;5008126;28;20556;-84
2022/10/26 11:32:28;;;;;;;4.85;3.00;;;;;;;17.23;99.08;101140.84;4982004;28;20064;-85
2022/10/26 11:35:02;;;;;;;5.88;2.95;;;;;;;17.32;97.55;101139.59;5012925;28;20034;-85
2022/10/26 11:37:36;;;;;;;5.20;2.90;;;;;;;17.37;98.12;101134.97;5020340;28;20053;-85
2022/10/26 11:40:13;;;;;;;5.55;3.40;;;;;;;17.35;94.01;101134.16;5012288;28;20041;-84